sensor_id;sensor_type;location;lat;lon;timestamp;pressure;altitude;pressure_sealevel;temperature
81177;BMP280;74095;48.270;14.200;2024-01-30T00:01:57;99574.03;;;1.16
81177;BMP280;74095;48.270;14.200;2024-01-30T00:04:23;99568.28;;;1.06
81177;BMP280;74095;48.270;14.200;2024-01-30T00:06:50;99584.28;;;1.11
81177;BMP280;74095;48.270;14.200;2024-01-30T00:09:16;99575.16;;;1.07
81177;BMP280;74095;48.270;14.200;2024-01-30T00:11:42;99584.78;;;1.00
81177;BMP280;74095;48.270;14.200;2024-01-30T00:14:08;99572.75;;;0.91
81177;BMP280;74095;48.270;14.200;2024-01-30T00:16:34;99578.28;;;0.96
81177;BMP280;74095;48.270;14.200;2024-01-30T00:19:00;99583.53;;;0.96
81177;BMP280;74095;48.270;14.200;2024-01-30T00:21:27;99571.69;;;0.85
81177;BMP280;74095;48.270;14.200;2024-01-30T00:23:53;99562.38;;;0.82
81177;BMP280;74095;48.270;14.200;2024-01-30T00:26:19;99586.34;;;0.94
81177;BMP280;74095;48.270;14.200;2024-01-30T00:28:46;99583.91;;;0.93
81177;BMP280;74095;48.270;14.200;2024-01-30T00:31:12;99581.53;;;0.98
81177;BMP280;74095;48.270;14.200;2024-01-30T00:33:39;99581.53;;;0.98
81177;BMP280;74095;48.270;14.200;2024-01-30T00:36:05;99574.41;;;0.92
81177;BMP280;74095;48.270;14.200;2024-01-30T00:38:35;99584.53;;;0.95
81177;BMP280;74095;48.270;14.200;2024-01-30T00:41:01;99571.13;;;0.90
81177;BMP280;74095;48.270;14.200;2024-01-30T00:43:30;99568.06;;;0.86
81177;BMP280;74095;48.270;14.200;2024-01-30T00:45:57;99586.28;;;0.88
81177;BMP280;74095;48.270;14.200;2024-01-30T00:48:23;99583.84;;;0.86
81177;BMP280;74095;48.270;14.200;2024-01-30T00:50:49;99581.19;;;0.86
81177;BMP280;74095;48.270;14.200;2024-01-30T00:53:15;99579.75;;;0.83
81177;BMP280;74095;48.270;14.200;2024-01-30T00:55:41;99558.59;;;0.70
81177;BMP280;74095;48.270;14.200;2024-01-30T00:58:07;99586.28;;;0.88
81177;BMP280;74095;48.270;14.200;2024-01-30T01:00:33;99577.84;;;0.92
81177;BMP280;74095;48.270;14.200;2024-01-30T01:02:59;99571.78;;;0.92
81177;BMP280;74095;48.270;14.200;2024-01-30T01:05:25;99566.75;;;0.97
81177;BMP280;74095;48.270;14.200;2024-01-30T01:07:51;99562.75;;;1.01
81177;BMP280;74095;48.270;14.200;2024-01-30T01:10:17;99558.50;;;1.00
81177;BMP280;74095;48.270;14.200;2024-01-30T01:12:44;99548.81;;;1.00
81177;BMP280;74095;48.270;14.200;2024-01-30T01:15:10;99562.34;;;1.18
81177;BMP280;74095;48.270;14.200;2024-01-30T01:17:39;99555.94;;;1.27
81177;BMP280;74095;48.270;14.200;2024-01-30T01:20:06;99562.66;;;1.30
81177;BMP280;74095;48.270;14.200;2024-01-30T01:22:32;99545.66;;;1.26
81177;BMP280;74095;48.270;14.200;2024-01-30T01:24:59;99563.22;;;1.25
81177;BMP280;74095;48.270;14.200;2024-01-30T01:27:25;99558.72;;;1.19
81177;BMP280;74095;48.270;14.200;2024-01-30T01:29:51;99554.72;;;1.23
81177;BMP280;74095;48.270;14.200;2024-01-30T01:32:18;99563.31;;;1.32
81177;BMP280;74095;48.270;14.200;2024-01-30T01:34:44;99552.66;;;1.19
81177;BMP280;74095;48.270;14.200;2024-01-30T01:37:10;99566.78;;;1.18
81177;BMP280;74095;48.270;14.200;2024-01-30T01:39:36;99566.72;;;1.11
81177;BMP280;74095;48.270;14.200;2024-01-30T01:42:02;99562.19;;;1.05
81177;BMP280;74095;48.270;14.200;2024-01-30T01:44:27;99550.63;;;1.00
81177;BMP280;74095;48.270;14.200;2024-01-30T01:46:54;99554.00;;;0.94
81177;BMP280;74095;48.270;14.200;2024-01-30T01:49:29;99554.38;;;0.91
81177;BMP280;74095;48.270;14.200;2024-01-30T01:51:56;99556.81;;;0.92
81177;BMP280;74095;48.270;14.200;2024-01-30T01:54:26;99553.53;;;0.90
81177;BMP280;74095;48.270;14.200;2024-01-30T01:56:53;99553.94;;;0.87
81177;BMP280;74095;48.270;14.200;2024-01-30T01:59:19;99539.72;;;0.81
81177;BMP280;74095;48.270;14.200;2024-01-30T02:01:46;99547.97;;;0.78
81177;BMP280;74095;48.270;14.200;2024-01-30T02:04:15;99540.81;;;0.72
81177;BMP280;74095;48.270;14.200;2024-01-30T02:06:43;99541.19;;;0.69
81177;BMP280;74095;48.270;14.200;2024-01-30T02:09:09;99540.75;;;0.66
81177;BMP280;74095;48.270;14.200;2024-01-30T02:11:35;99550.06;;;0.68
81177;BMP280;74095;48.270;14.200;2024-01-30T02:14:04;99551.69;;;0.69
81177;BMP280;74095;48.270;14.200;2024-01-30T02:16:31;99542.91;;;0.62
81177;BMP280;74095;48.270;14.200;2024-01-30T02:18:57;99547.63;;;0.67
81177;BMP280;74095;48.270;14.200;2024-01-30T02:21:23;99528.69;;;0.71
81177;BMP280;74095;48.270;14.200;2024-01-30T02:23:50;99546.38;;;0.99
81177;BMP280;74095;48.270;14.200;2024-01-30T02:26:16;99549.28;;;1.25
81177;BMP280;74095;48.270;14.200;2024-01-30T02:28:42;99548.41;;;1.46
81177;BMP280;74095;48.270;14.200;2024-01-30T02:31:08;99548.91;;;1.56
81177;BMP280;74095;48.270;14.200;2024-01-30T02:33:34;99538.38;;;1.56
81177;BMP280;74095;48.270;14.200;2024-01-30T02:36:00;99551.34;;;1.57
81177;BMP280;74095;48.270;14.200;2024-01-30T02:38:26;99556.88;;;1.41
81177;BMP280;74095;48.270;14.200;2024-01-30T02:40:52;99554.59;;;1.38
81177;BMP280;74095;48.270;14.200;2024-01-30T02:43:19;99546.25;;;1.28
81177;BMP280;74095;48.270;14.200;2024-01-30T02:45:45;99542.97;;;1.05
81177;BMP280;74095;48.270;14.200;2024-01-30T02:48:11;99544.75;;;0.98
81177;BMP280;74095;48.270;14.200;2024-01-30T02:50:37;99555.19;;;0.91
81177;BMP280;74095;48.270;14.200;2024-01-30T02:53:03;99555.84;;;0.78
81177;BMP280;74095;48.270;14.200;2024-01-30T02:55:28;99560.13;;;0.65
81177;BMP280;74095;48.270;14.200;2024-01-30T02:57:54;99551.81;;;0.47
81177;BMP280;74095;48.270;14.200;2024-01-30T03:00:20;99556.91;;;0.48
81177;BMP280;74095;48.270;14.200;2024-01-30T03:02:50;99548.78;;;0.28
81177;BMP280;74095;48.270;14.200;2024-01-30T03:05:18;99564.25;;;0.38
81177;BMP280;74095;48.270;14.200;2024-01-30T03:07:46;99547.34;;;0.26
81177;BMP280;74095;48.270;14.200;2024-01-30T03:10:14;99553.97;;;0.22
81177;BMP280;74095;48.270;14.200;2024-01-30T03:12:40;99565.53;;;0.13
81177;BMP280;74095;48.270;14.200;2024-01-30T03:15:08;99560.16;;;0.06
81177;BMP280;74095;48.270;14.200;2024-01-30T03:17:38;99554.47;;;0.03
81177;BMP280;74095;48.270;14.200;2024-01-30T03:20:08;99553.75;;;0.09
81177;BMP280;74095;48.270;14.200;2024-01-30T03:22:38;99549.31;;;0.09
81177;BMP280;74095;48.270;14.200;2024-01-30T03:25:08;99553.59;;;0.10
81177;BMP280;74095;48.270;14.200;2024-01-30T03:27:39;99561.19;;;0.20
81177;BMP280;74095;48.270;14.200;2024-01-30T03:30:09;99566.06;;;0.23
81177;BMP280;74095;48.270;14.200;2024-01-30T03:32:40;99566.72;;;0.25
81177;BMP280;74095;48.270;14.200;2024-01-30T03:35:11;99562.09;;;0.27
81177;BMP280;74095;48.270;14.200;2024-01-30T03:37:42;99566.16;;;0.29
81177;BMP280;74095;48.270;14.200;2024-01-30T03:40:14;99554.41;;;0.25
81177;BMP280;74095;48.270;14.200;2024-01-30T03:42:45;99559.75;;;0.32
81177;BMP280;74095;48.270;14.200;2024-01-30T03:45:15;99558.19;;;0.37
81177;BMP280;74095;48.270;14.200;2024-01-30T03:47:48;99549.09;;;0.55
81177;BMP280;74095;48.270;14.200;2024-01-30T03:50:16;99567.00;;;0.80
81177;BMP280;74095;48.270;14.200;2024-01-30T03:52:45;99554.38;;;0.91
81177;BMP280;74095;48.270;14.200;2024-01-30T03:55:15;99543.75;;;0.99
81177;BMP280;74095;48.270;14.200;2024-01-30T03:57:46;99561.75;;;1.02
81177;BMP280;74095;48.270;14.200;2024-01-30T04:00:20;99559.09;;;0.80
81177;BMP280;74095;48.270;14.200;2024-01-30T04:02:48;99547.56;;;0.60
81177;BMP280;74095;48.270;14.200;2024-01-30T04:05:18;99564.75;;;0.63
81177;BMP280;74095;48.270;14.200;2024-01-30T04:07:48;99570.72;;;0.71
81177;BMP280;74095;48.270;14.200;2024-01-30T04:10:20;99561.91;;;0.79
81177;BMP280;74095;48.270;14.200;2024-01-30T04:12:50;99561.25;;;0.92
81177;BMP280;74095;48.270;14.200;2024-01-30T04:15:21;99565.38;;;1.01
81177;BMP280;74095;48.270;14.200;2024-01-30T04:17:52;99550.25;;;1.03
81177;BMP280;74095;48.270;14.200;2024-01-30T04:20:22;99560.28;;;1.14
81177;BMP280;74095;48.270;14.200;2024-01-30T04:22:51;99566.44;;;1.21
81177;BMP280;74095;48.270;14.200;2024-01-30T04:25:20;99568.50;;;1.25
81177;BMP280;74095;48.270;14.200;2024-01-30T04:27:49;99566.13;;;1.31
81177;BMP280;74095;48.270;14.200;2024-01-30T04:30:19;99555.53;;;1.24
81177;BMP280;74095;48.270;14.200;2024-01-30T04:32:48;99575.44;;;1.33
81177;BMP280;74095;48.270;14.200;2024-01-30T04:35:17;99571.78;;;1.34
81177;BMP280;74095;48.270;14.200;2024-01-30T04:37:48;99571.41;;;1.37
81177;BMP280;74095;48.270;14.200;2024-01-30T04:40:16;99553.56;;;1.33
81177;BMP280;74095;48.270;14.200;2024-01-30T04:42:44;99560.50;;;1.40
81177;BMP280;74095;48.270;14.200;2024-01-30T04:45:16;99560.88;;;1.37
81177;BMP280;74095;48.270;14.200;2024-01-30T04:47:45;99568.63;;;1.45
81177;BMP280;74095;48.270;14.200;2024-01-30T04:50:16;99568.03;;;1.43
81177;BMP280;74095;48.270;14.200;2024-01-30T04:52:49;99567.16;;;1.36
81177;BMP280;74095;48.270;14.200;2024-01-30T04:55:18;99569.31;;;1.26
81177;BMP280;74095;48.270;14.200;2024-01-30T04:57:49;99569.56;;;1.31
81177;BMP280;74095;48.270;14.200;2024-01-30T05:00:20;99562.03;;;1.28
81177;BMP280;74095;48.270;14.200;2024-01-30T05:02:51;99575.63;;;1.32
81177;BMP280;74095;48.270;14.200;2024-01-30T05:05:20;99563.97;;;1.19
81177;BMP280;74095;48.270;14.200;2024-01-30T05:07:51;99574.94;;;1.23
81177;BMP280;74095;48.270;14.200;2024-01-30T05:10:25;99569.00;;;1.00
81177;BMP280;74095;48.270;14.200;2024-01-30T05:12:58;99575.16;;;1.07
81177;BMP280;74095;48.270;14.200;2024-01-30T05:15:28;99567.09;;;1.08
81177;BMP280;74095;48.270;14.200;2024-01-30T05:17:57;99582.31;;;1.13
81177;BMP280;74095;48.270;14.200;2024-01-30T05:20:25;99586.09;;;1.10
81177;BMP280;74095;48.270;14.200;2024-01-30T05:22:58;99591.31;;;1.04
81177;BMP280;74095;48.270;14.200;2024-01-30T05:25:30;99582.16;;;1.00
81177;BMP280;74095;48.270;14.200;2024-01-30T05:28:02;99602.31;;;0.78
81177;BMP280;74095;48.270;14.200;2024-01-30T05:30:32;99600.34;;;0.80
81177;BMP280;74095;48.270;14.200;2024-01-30T05:33:04;99587.00;;;0.81
81177;BMP280;74095;48.270;14.200;2024-01-30T05:35:32;99602.06;;;0.58
81177;BMP280;74095;48.270;14.200;2024-01-30T05:38:02;99606.34;;;0.59
81177;BMP280;74095;48.270;14.200;2024-01-30T05:40:32;99610.03;;;0.50
81177;BMP280;74095;48.270;14.200;2024-01-30T05:43:01;99612.03;;;0.48
81177;BMP280;74095;48.270;14.200;2024-01-30T05:45:30;99612.31;;;0.53
81177;BMP280;74095;48.270;14.200;2024-01-30T05:47:59;99607.69;;;0.55
81177;BMP280;74095;48.270;14.200;2024-01-30T05:50:28;99598.09;;;0.48
81177;BMP280;74095;48.270;14.200;2024-01-30T05:53:00;99606.88;;;0.55
81177;BMP280;74095;48.270;14.200;2024-01-30T05:55:30;99615.56;;;0.55
81177;BMP280;74095;48.270;14.200;2024-01-30T05:58:02;99618.19;;;0.55
81177;BMP280;74095;48.270;14.200;2024-01-30T06:00:32;99611.66;;;0.51
81177;BMP280;74095;48.270;14.200;2024-01-30T06:03:03;99616.91;;;0.51
81177;BMP280;74095;48.270;14.200;2024-01-30T06:05:35;99618.72;;;0.51
81177;BMP280;74095;48.270;14.200;2024-01-30T06:08:05;99604.63;;;0.37
81177;BMP280;74095;48.270;14.200;2024-01-30T06:10:34;99614.31;;;0.36
81177;BMP280;74095;48.270;14.200;2024-01-30T06:13:04;99632.25;;;0.33
81177;BMP280;74095;48.270;14.200;2024-01-30T06:15:35;99614.31;;;0.36
81177;BMP280;74095;48.270;14.200;2024-01-30T06:18:07;99605.59;;;0.36
81177;BMP280;74095;48.270;14.200;2024-01-30T06:20:39;99616.66;;;0.46
81177;BMP280;74095;48.270;14.200;2024-01-30T06:23:11;99627.91;;;0.55
81177;BMP280;74095;48.270;14.200;2024-01-30T06:25:42;99623.44;;;0.55
81177;BMP280;74095;48.270;14.200;2024-01-30T06:28:13;99621.34;;;0.51
81177;BMP280;74095;48.270;14.200;2024-01-30T06:30:42;99639.94;;;0.64
81177;BMP280;74095;48.270;14.200;2024-01-30T06:33:13;99635.13;;;0.67
81177;BMP280;74095;48.270;14.200;2024-01-30T06:35:44;99632.16;;;0.70
81177;BMP280;74095;48.270;14.200;2024-01-30T06:38:14;99625.78;;;0.79
81177;BMP280;74095;48.270;14.200;2024-01-30T06:40:45;99628.78;;;0.76
81177;BMP280;74095;48.270;14.200;2024-01-30T06:43:17;99628.53;;;0.71
81177;BMP280;74095;48.270;14.200;2024-01-30T06:45:45;99627.78;;;0.77
81177;BMP280;74095;48.270;14.200;2024-01-30T06:48:16;99620.81;;;0.70
81177;BMP280;74095;48.270;14.200;2024-01-30T06:50:46;99618.63;;;0.73
81177;BMP280;74095;48.270;14.200;2024-01-30T06:53:15;99626.97;;;0.77
81177;BMP280;74095;48.270;14.200;2024-01-30T06:55:46;99626.44;;;0.81
81177;BMP280;74095;48.270;14.200;2024-01-30T06:58:18;99625.06;;;0.85
81177;BMP280;74095;48.270;14.200;2024-01-30T07:00:47;99628.69;;;0.84
81177;BMP280;74095;48.270;14.200;2024-01-30T07:03:15;99622.91;;;0.74
81177;BMP280;74095;48.270;14.200;2024-01-30T07:05:44;99626.25;;;0.68
81177;BMP280;74095;48.270;14.200;2024-01-30T07:08:18;99633.31;;;0.68
81177;BMP280;74095;48.270;14.200;2024-01-30T07:10:48;99628.88;;;0.68
81177;BMP280;74095;48.270;14.200;2024-01-30T07:13:27;99642.94;;;0.75
81177;BMP280;74095;48.270;14.200;2024-01-30T07:15:57;99639.47;;;0.46
81177;BMP280;74095;48.270;14.200;2024-01-30T07:18:26;99642.44;;;-0.02
81177;BMP280;74095;48.270;14.200;2024-01-30T07:20:57;99641.72;;;-0.41
81177;BMP280;74095;48.270;14.200;2024-01-30T07:23:27;99650.94;;;-0.45
81177;BMP280;74095;48.270;14.200;2024-01-30T07:25:57;99639.72;;;-0.31
81177;BMP280;74095;48.270;14.200;2024-01-30T07:28:27;99630.66;;;-0.51
81177;BMP280;74095;48.270;14.200;2024-01-30T07:30:59;99646.84;;;-0.17
81177;BMP280;74095;48.270;14.200;2024-01-30T07:33:29;99643.69;;;-0.43
81177;BMP280;74095;48.270;14.200;2024-01-30T07:35:59;99661.06;;;-0.42
81177;BMP280;74095;48.270;14.200;2024-01-30T07:38:32;99664.25;;;-0.24
81177;BMP280;74095;48.270;14.200;2024-01-30T07:41:04;99668.44;;;-0.15
81177;BMP280;74095;48.270;14.200;2024-01-30T07:43:35;99666.75;;;-0.08
81177;BMP280;74095;48.270;14.200;2024-01-30T07:46:07;99673.53;;;-0.13
81177;BMP280;74095;48.270;14.200;2024-01-30T07:48:36;99675.75;;;-0.33
81177;BMP280;74095;48.270;14.200;2024-01-30T07:51:03;99674.09;;;-0.26
81177;BMP280;74095;48.270;14.200;2024-01-30T07:53:29;99678.13;;;-0.15
81177;BMP280;74095;48.270;14.200;2024-01-30T07:55:55;99681.16;;;-0.04
81177;BMP280;74095;48.270;14.200;2024-01-30T07:58:21;99676.47;;;-0.39
81177;BMP280;74095;48.270;14.200;2024-01-30T08:00:47;99680.03;;;-0.32
81177;BMP280;74095;48.270;14.200;2024-01-30T08:03:13;99674.78;;;-0.32
81177;BMP280;74095;48.270;14.200;2024-01-30T08:05:42;99667.09;;;-0.33
81177;BMP280;74095;48.270;14.200;2024-01-30T08:08:07;99674.16;;;-0.11
81177;BMP280;74095;48.270;14.200;2024-01-30T08:10:33;99685.31;;;0.06
81177;BMP280;74095;48.270;14.200;2024-01-30T08:12:59;99696.97;;;-0.12
81177;BMP280;74095;48.270;14.200;2024-01-30T08:15:25;99674.78;;;-0.09
81177;BMP280;74095;48.270;14.200;2024-01-30T08:17:51;99695.72;;;0.22
81177;BMP280;74095;48.270;14.200;2024-01-30T08:20:21;99681.69;;;0.29
81177;BMP280;74095;48.270;14.200;2024-01-30T08:22:47;99683.03;;;0.40
81177;BMP280;74095;48.270;14.200;2024-01-30T08:25:13;99687.00;;;0.36
81177;BMP280;74095;48.270;14.200;2024-01-30T08:27:39;99700.13;;;0.36
81177;BMP280;74095;48.270;14.200;2024-01-30T08:30:06;99689.91;;;0.41
81177;BMP280;74095;48.270;14.200;2024-01-30T08:32:32;99683.75;;;0.19
81177;BMP280;74095;48.270;14.200;2024-01-30T08:34:59;99687.75;;;0.30
81177;BMP280;74095;48.270;14.200;2024-01-30T08:37:25;99689.47;;;0.37
81177;BMP280;74095;48.270;14.200;2024-01-30T08:39:50;99692.91;;;0.38
81177;BMP280;74095;48.270;14.200;2024-01-30T08:42:16;99688.47;;;0.53
81177;BMP280;74095;48.270;14.200;2024-01-30T08:44:51;99688.09;;;0.56
81177;BMP280;74095;48.270;14.200;2024-01-30T08:47:18;99702.81;;;0.65
81177;BMP280;74095;48.270;14.200;2024-01-30T08:49:44;99696.53;;;0.66
81177;BMP280;74095;48.270;14.200;2024-01-30T08:52:11;99705.16;;;0.60
81177;BMP280;74095;48.270;14.200;2024-01-30T08:54:37;99703.81;;;0.79
81177;BMP280;74095;48.270;14.200;2024-01-30T08:57:03;99701.78;;;0.66
81177;BMP280;74095;48.270;14.200;2024-01-30T08:59:29;99704.34;;;0.60
81177;BMP280;74095;48.270;14.200;2024-01-30T09:01:55;99699.34;;;0.79
81177;BMP280;74095;48.270;14.200;2024-01-30T09:04:23;99697.34;;;0.52
81177;BMP280;74095;48.270;14.200;2024-01-30T09:06:49;99708.78;;;0.59
81177;BMP280;74095;48.270;14.200;2024-01-30T09:09:16;99703.31;;;0.46
81177;BMP280;74095;48.270;14.200;2024-01-30T09:11:42;99702.28;;;0.18
81177;BMP280;74095;48.270;14.200;2024-01-30T09:14:09;99704.78;;;0.49
81177;BMP280;74095;48.270;14.200;2024-01-30T09:16:34;99713.53;;;0.41
81177;BMP280;74095;48.270;14.200;2024-01-30T09:19:01;99697.72;;;0.64
81177;BMP280;74095;48.270;14.200;2024-01-30T09:21:27;99692.75;;;0.54
81177;BMP280;74095;48.270;14.200;2024-01-30T09:24:01;99706.31;;;0.58
81177;BMP280;74095;48.270;14.200;2024-01-30T09:26:29;99700.69;;;0.46
81177;BMP280;74095;48.270;14.200;2024-01-30T09:28:55;99701.41;;;0.25
81177;BMP280;74095;48.270;14.200;2024-01-30T09:31:21;99703.75;;;0.20
81177;BMP280;74095;48.270;14.200;2024-01-30T09:33:47;99706.22;;;0.22
81177;BMP280;74095;48.270;14.200;2024-01-30T09:36:13;99709.19;;;0.19
81177;BMP280;74095;48.270;14.200;2024-01-30T09:38:44;99711.03;;;0.48
81177;BMP280;74095;48.270;14.200;2024-01-30T09:41:10;99713.28;;;0.51
81177;BMP280;74095;48.270;14.200;2024-01-30T09:43:37;99714.31;;;0.64
81177;BMP280;74095;48.270;14.200;2024-01-30T09:46:05;99698.16;;;0.38
81177;BMP280;74095;48.270;14.200;2024-01-30T09:48:32;99708.56;;;0.46
81177;BMP280;74095;48.270;14.200;2024-01-30T09:50:58;99701.22;;;0.41
81177;BMP280;74095;48.270;14.200;2024-01-30T09:53:24;99703.66;;;0.28
81177;BMP280;74095;48.270;14.200;2024-01-30T09:55:51;99686.28;;;0.42
81177;BMP280;74095;48.270;14.200;2024-01-30T09:58:17;99693.91;;;0.66
81177;BMP280;74095;48.270;14.200;2024-01-30T10:00:43;99702.06;;;0.57
81177;BMP280;74095;48.270;14.200;2024-01-30T10:03:09;99704.19;;;0.76
81177;BMP280;74095;48.270;14.200;2024-01-30T10:05:36;99700.56;;;0.77
81177;BMP280;74095;48.270;14.200;2024-01-30T10:08:08;99713.56;;;1.00
81177;BMP280;74095;48.270;14.200;2024-01-30T10:10:34;99718.38;;;1.11
81177;BMP280;74095;48.270;14.200;2024-01-30T10:13:01;99718.38;;;1.25
81177;BMP280;74095;48.270;14.200;2024-01-30T10:15:28;99703.88;;;1.15
81177;BMP280;74095;48.270;14.200;2024-01-30T10:17:54;99708.69;;;1.26
81177;BMP280;74095;48.270;14.200;2024-01-30T10:20:20;99709.94;;;1.30
81177;BMP280;74095;48.270;14.200;2024-01-30T10:22:49;99698.53;;;1.08
81177;BMP280;74095;48.270;14.200;2024-01-30T10:25:15;99702.44;;;0.98
81177;BMP280;74095;48.270;14.200;2024-01-30T10:27:41;99685.84;;;0.68
81177;BMP280;74095;48.270;14.200;2024-01-30T10:30:07;99688.41;;;0.76
81177;BMP280;74095;48.270;14.200;2024-01-30T10:32:33;99690.69;;;0.94
81177;BMP280;74095;48.270;14.200;2024-01-30T10:34:59;99676.16;;;0.98
81177;BMP280;74095;48.270;14.200;2024-01-30T10:37:25;99679.75;;;1.11
81177;BMP280;74095;48.270;14.200;2024-01-30T10:39:53;99672.47;;;1.28
81177;BMP280;74095;48.270;14.200;2024-01-30T10:42:25;99671.34;;;1.37
81177;BMP280;74095;48.270;14.200;2024-01-30T10:47:54;99672.69;;;1.12
81177;BMP280;74095;48.270;14.200;2024-01-30T10:50:24;99667.84;;;1.30
81177;BMP280;74095;48.270;14.200;2024-01-30T10:52:52;99669.38;;;1.03
81177;BMP280;74095;48.270;14.200;2024-01-30T10:55:18;99668.38;;;0.90
81177;BMP280;74095;48.270;14.200;2024-01-30T10:57:44;99673.81;;;0.88
81177;BMP280;74095;48.270;14.200;2024-01-30T11:00:12;99663.31;;;0.73
81177;BMP280;74095;48.270;14.200;2024-01-30T11:02:40;99663.81;;;1.13
81177;BMP280;74095;48.270;14.200;2024-01-30T11:05:07;99653.50;;;1.33
81177;BMP280;74095;48.270;14.200;2024-01-30T11:07:34;99651.75;;;1.40
81177;BMP280;74095;48.270;14.200;2024-01-30T11:10:02;99646.09;;;1.21
81177;BMP280;74095;48.270;14.200;2024-01-30T11:12:30;99647.47;;;1.32
81177;BMP280;74095;48.270;14.200;2024-01-30T11:15:16;99646.31;;;1.41
81177;BMP280;74095;48.270;14.200;2024-01-30T11:20:29;99643.53;;;1.49
81177;BMP280;74095;48.270;14.200;2024-01-30T11:22:59;99654.75;;;1.37
81177;BMP280;74095;48.270;14.200;2024-01-30T11:25:27;99642.59;;;1.36
81177;BMP280;74095;48.270;14.200;2024-01-30T11:27:55;99633.78;;;1.22
81177;BMP280;74095;48.270;14.200;2024-01-30T11:30:31;99637.72;;;1.33
81177;BMP280;74095;48.270;14.200;2024-01-30T11:35:36;99643.81;;;1.33
81177;BMP280;74095;48.270;14.200;2024-01-30T11:38:03;99629.88;;;1.60
81177;BMP280;74095;48.270;14.200;2024-01-30T11:40:30;99624.28;;;1.63
81177;BMP280;74095;48.270;14.200;2024-01-30T11:42:58;99644.06;;;1.81
81177;BMP280;74095;48.270;14.200;2024-01-30T11:45:26;99633.78;;;1.86
81177;BMP280;74095;48.270;14.200;2024-01-30T11:47:53;99638.25;;;1.92
81177;BMP280;74095;48.270;14.200;2024-01-30T11:50:19;99626.72;;;1.93
81177;BMP280;74095;48.270;14.200;2024-01-30T11:52:46;99625.91;;;1.64
81177;BMP280;74095;48.270;14.200;2024-01-30T11:55:12;99624.38;;;1.77
81177;BMP280;74095;48.270;14.200;2024-01-30T11:57:38;99631.94;;;1.86
81177;BMP280;74095;48.270;14.200;2024-01-30T12:00:05;99616.97;;;1.87
81177;BMP280;74095;48.270;14.200;2024-01-30T12:02:42;99610.94;;;1.93
81177;BMP280;74095;48.270;14.200;2024-01-30T12:05:08;99610.41;;;2.04
81177;BMP280;74095;48.270;14.200;2024-01-30T12:07:35;99623.06;;;1.94
81177;BMP280;74095;48.270;14.200;2024-01-30T12:10:01;99601.00;;;1.95
81177;BMP280;74095;48.270;14.200;2024-01-30T12:12:28;99604.63;;;1.94
81177;BMP280;74095;48.270;14.200;2024-01-30T12:14:55;99608.31;;;1.99
81177;BMP280;74095;48.270;14.200;2024-01-30T12:17:32;99599.63;;;1.99
81177;BMP280;74095;48.270;14.200;2024-01-30T12:20:06;99599.44;;;1.73
81177;BMP280;74095;48.270;14.200;2024-01-30T12:22:40;99594.50;;;1.91
81177;BMP280;74095;48.270;14.200;2024-01-30T12:27:36;99601.06;;;2.01
81177;BMP280;74095;48.270;14.200;2024-01-30T12:30:10;99586.03;;;1.95
81177;BMP280;74095;48.270;14.200;2024-01-30T12:32:41;99593.56;;;1.98
81177;BMP280;74095;48.270;14.200;2024-01-30T12:35:14;99588.31;;;2.05
81177;BMP280;74095;48.270;14.200;2024-01-30T12:37:41;99587.31;;;2.06
81177;BMP280;74095;48.270;14.200;2024-01-30T12:40:08;99577.31;;;1.95
81177;BMP280;74095;48.270;14.200;2024-01-30T12:42:35;99569.00;;;1.63
81177;BMP280;74095;48.270;14.200;2024-01-30T12:45:03;99583.88;;;1.78
81177;BMP280;74095;48.270;14.200;2024-01-30T12:47:30;99576.16;;;1.69
81177;BMP280;74095;48.270;14.200;2024-01-30T12:49:56;99581.72;;;1.60
81177;BMP280;74095;48.270;14.200;2024-01-30T12:52:22;99582.09;;;1.57
81177;BMP280;74095;48.270;14.200;2024-01-30T12:54:49;99575.41;;;1.76
81177;BMP280;74095;48.270;14.200;2024-01-30T12:57:15;99572.22;;;1.93
81177;BMP280;74095;48.270;14.200;2024-01-30T12:59:42;99571.09;;;2.02
81177;BMP280;74095;48.270;14.200;2024-01-30T13:02:08;99575.25;;;2.18
81177;BMP280;74095;48.270;14.200;2024-01-30T13:04:34;99582.09;;;2.12
81177;BMP280;74095;48.270;14.200;2024-01-30T13:07:00;99569.94;;;2.11
81177;BMP280;74095;48.270;14.200;2024-01-30T13:09:26;99573.66;;;2.24
81177;BMP280;74095;48.270;14.200;2024-01-30T13:11:52;99565.84;;;2.02
81177;BMP280;74095;48.270;14.200;2024-01-30T13:14:19;99569.09;;;1.77
81177;BMP280;74095;48.270;14.200;2024-01-30T13:16:45;99560.63;;;1.53
81177;BMP280;74095;48.270;14.200;2024-01-30T13:19:11;99560.31;;;1.63
81177;BMP280;74095;48.270;14.200;2024-01-30T13:21:37;99570.53;;;1.51
81177;BMP280;74095;48.270;14.200;2024-01-30T13:24:03;99563.94;;;1.62
81177;BMP280;74095;48.270;14.200;2024-01-30T13:26:32;99577.81;;;1.28
81177;BMP280;74095;48.270;14.200;2024-01-30T13:28:58;99563.38;;;1.45
81177;BMP280;74095;48.270;14.200;2024-01-30T13:31:24;99572.78;;;1.54
81177;BMP280;74095;48.270;14.200;2024-01-30T13:33:50;99563.31;;;1.32
81177;BMP280;74095;48.270;14.200;2024-01-30T13:36:16;99564.91;;;1.33
81177;BMP280;74095;48.270;14.200;2024-01-30T13:38:42;99560.75;;;1.45
81177;BMP280;74095;48.270;14.200;2024-01-30T13:41:08;99567.09;;;1.79
81177;BMP280;74095;48.270;14.200;2024-01-30T13:43:34;99569.75;;;1.79
81177;BMP280;74095;48.270;14.200;2024-01-30T13:46:00;99557.56;;;1.78
81177;BMP280;74095;48.270;14.200;2024-01-30T13:48:26;99562.06;;;1.84
81177;BMP280;74095;48.270;14.200;2024-01-30T13:50:53;99568.38;;;1.40
81177;BMP280;74095;48.270;14.200;2024-01-30T13:53:19;99570.13;;;1.76
81177;BMP280;74095;48.270;14.200;2024-01-30T13:55:45;99572.63;;;1.90
81177;BMP280;74095;48.270;14.200;2024-01-30T13:58:11;99562.03;;;2.11
81177;BMP280;74095;48.270;14.200;2024-01-30T14:00:37;99571.63;;;2.19
81177;BMP280;74095;48.270;14.200;2024-01-30T14:03:03;99567.19;;;2.26
81177;BMP280;74095;48.270;14.200;2024-01-30T14:05:29;99566.00;;;2.29
81177;BMP280;74095;48.270;14.200;2024-01-30T14:07:56;99557.06;;;2.23
81177;BMP280;74095;48.270;14.200;2024-01-30T14:10:22;99561.91;;;1.92
81177;BMP280;74095;48.270;14.200;2024-01-30T14:12:48;99562.34;;;1.67
81177;BMP280;74095;48.270;14.200;2024-01-30T14:15:14;99554.88;;;1.71
81177;BMP280;74095;48.270;14.200;2024-01-30T14:17:47;99563.34;;;1.94
81177;BMP280;74095;48.270;14.200;2024-01-30T14:20:14;99567.06;;;2.06
81177;BMP280;74095;48.270;14.200;2024-01-30T14:22:42;99559.34;;;2.05
81177;BMP280;74095;48.270;14.200;2024-01-30T14:25:08;99560.66;;;1.88